Time;durP1;ratioP1;P1;durP2;ratioP2;P2;SDS_P1;SDS_P2;PMS_P1;PMS_P2;Temp;Humidity;BMP_temperature;BMP_pressure;BME280_temperature;BME280_humidity;BME280_pressure;Samples;Min_cycle;Max_cycle;Signal;HPM_P1;HPM_P2
2023/12/22 00:02:20;;;;;;;74.80;54.22;;;9.60;70.20;;;;;;5035143;28;20064;-66
2023/12/22 00:04:45;;;;;;;61.15;45.75;;;9.50;73.30;;;;;;5035500;28;20396;-67
2023/12/22 00:07:11;;;;;;;90.07;64.63;;;9.40;74.90;;;;;;5034895;28;20026;-71
2023/12/22 00:09:37;;;;;;;80.18;58.75;;;9.30;74.90;;;;;;5034839;28;20017;-68
2023/12/22 00:12:03;;;;;;;60.47;46.17;;;9.30;76.10;;;;;;5034824;28;20034;-71
2023/12/22 00:14:29;;;;;;;55.92;43.05;;;9.30;73.80;;;;;;5034962;28;20032;-62
2023/12/22 00:16:55;;;;;;;50.22;40.92;;;9.40;73.80;;;;;;5034981;28;20383;-71
2023/12/22 00:19:20;;;;;;;51.83;39.42;;;9.40;73.30;;;;;;5035159;28;20037;-67
2023/12/22 00:21:46;;;;;;;47.70;37.67;;;9.50;73.00;;;;;;5034787;28;20056;-69
2023/12/22 00:24:12;;;;;;;48.88;38.92;;;9.50;72.30;;;;;;5034605;28;20022;-69
2023/12/22 00:26:38;;;;;;;42.88;34.97;;;9.40;72.90;;;;;;5034750;28;20060;-66
2023/12/22 00:29:03;;;;;;;38.65;31.65;;;9.40;74.30;;;;;;5034582;28;20104;-69
2023/12/22 00:31:29;;;;;;;48.97;35.47;;;9.40;73.60;;;;;;5034501;28;20030;-68
2023/12/22 00:33:55;;;;;;;58.90;45.13;;;9.50;73.80;;;;;;5034648;28;20076;-66
2023/12/22 00:36:24;;;;;;;48.00;37.05;;;9.50;74.40;;;;;;5034526;28;20026;-67
2023/12/22 00:38:50;;;;;;;44.38;35.13;;;9.30;77.10;;;;;;5034379;28;20052;-68
2023/12/22 00:41:15;;;;;;;39.95;32.72;;;9.30;76.40;;;;;;5033116;28;20439;-71
2023/12/22 00:43:41;;;;;;;39.50;32.25;;;9.30;77.00;;;;;;5034356;28;20017;-72
2023/12/22 00:46:07;;;;;;;42.88;33.33;;;9.40;76.20;;;;;;5034177;28;20021;-69
2023/12/22 00:48:32;;;;;;;41.25;31.75;;;9.40;75.80;;;;;;5033008;28;20083;-64
2023/12/22 00:50:58;;;;;;;45.63;35.83;;;9.40;75.50;;;;;;5034303;28;20025;-62
2023/12/22 00:53:24;;;;;;;37.85;28.83;;;9.50;75.80;;;;;;5033854;28;20498;-67
2023/12/22 00:55:50;;;;;;;44.97;34.28;;;9.40;76.10;;;;;;5034247;28;20028;-69
2023/12/22 00:58:15;;;;;;;48.70;37.42;;;9.40;77.00;;;;;;5033711;28;20057;-62
2023/12/22 01:00:41;;;;;;;55.63;42.17;;;9.30;77.70;;;;;;5033960;28;20140;-64
2023/12/22 01:03:06;;;;;;;43.47;35.08;;;9.20;78.20;;;;;;5034033;28;20032;-61
2023/12/22 01:05:32;;;;;;;44.42;34.65;;;9.20;80.00;;;;;;5034066;28;20380;-67
2023/12/22 01:07:58;;;;;;;39.35;31.00;;;9.20;80.50;;;;;;5033672;28;20022;-64
2023/12/22 01:10:23;;;;;;;46.80;33.97;;;9.20;80.00;;;;;;5033880;28;20026;-70
2023/12/22 01:12:49;;;;;;;40.97;31.65;;;9.30;79.80;;;;;;5033856;28;20056;-68
2023/12/22 01:15:15;;;;;;;35.47;29.85;;;9.30;79.60;;;;;;5034012;28;20033;-66
2023/12/22 01:17:40;;;;;;;42.15;31.83;;;9.30;80.20;;;;;;5032810;28;20037;-68
2023/12/22 01:20:06;;;;;;;32.00;26.02;;;9.30;80.90;;;;;;5033841;28;20028;-64
2023/12/22 01:22:33;;;;;;;39.03;29.13;;;9.30;80.00;;;;;;5033902;28;20033;-66
2023/12/22 01:24:59;;;;;;;33.22;25.45;;;9.40;79.70;;;;;;5033659;28;20128;-66
2023/12/22 01:27:25;;;;;;;32.25;25.52;;;9.40;79.70;;;;;;5033667;28;20379;-67
2023/12/22 01:29:51;;;;;;;38.53;30.05;;;9.40;79.40;;;;;;5033646;28;20026;-69
2023/12/22 01:32:16;;;;;;;34.95;27.05;;;9.40;79.00;;;;;;5033402;28;20022;-63
2023/12/22 01:34:42;;;;;;;35.92;26.83;;;9.20;80.30;;;;;;5032375;28;20068;-68
2023/12/22 01:37:09;;;;;;;34.13;26.02;;;9.20;80.80;;;;;;5033302;28;20022;-72
2023/12/22 01:39:35;;;;;;;32.00;25.33;;;9.20;82.40;;;;;;5033445;28;20476;-68
2023/12/22 01:42:00;;;;;;;41.40;31.65;;;9.20;82.50;;;;;;5033538;28;20040;-66
2023/12/22 01:44:27;;;;;;;39.20;30.58;;;9.20;83.00;;;;;;5033378;28;20029;-68
2023/12/22 01:46:53;;;;;;;61.53;42.92;;;9.00;85.10;;;;;;5033377;28;20056;-68
2023/12/22 01:49:21;;;;;;;46.90;36.50;;;9.00;85.90;;;;;;5033243;28;20053;-69
2023/12/22 01:51:47;;;;;;;50.05;38.83;;;8.90;87.70;;;;;;5033086;28;20365;-69
2023/12/22 01:54:15;;;;;;;53.05;40.50;;;8.90;89.10;;;;;;5033554;28;20022;-63
2023/12/22 01:56:42;;;;;;;47.40;36.83;;;8.90;89.20;;;;;;5033235;28;20076;-62
2023/12/22 01:59:08;;;;;;;67.72;50.60;;;8.90;90.10;;;;;;5033042;28;20045;-65
2023/12/22 02:01:35;;;;;;;52.40;40.00;;;8.90;90.20;;;;;;5033259;28;20384;-74
2023/12/22 02:04:02;;;;;;;50.90;39.53;;;8.90;89.10;;;;;;5033085;28;20040;-67
2023/12/22 02:06:30;;;;;;;51.92;38.95;;;8.80;90.60;;;;;;5033031;28;20024;-70
2023/12/22 02:08:57;;;;;;;51.80;40.03;;;8.90;89.30;;;;;;5033241;28;20024;-65
2023/12/22 02:11:23;;;;;;;47.50;35.15;;;8.90;89.10;;;;;;5037058;28;20052;-72
2023/12/22 02:13:49;;;;;;;48.58;38.30;;;8.80;90.40;;;;;;5037255;28;20033;-66
2023/12/22 02:16:25;;;;;;;47.67;36.65;;;8.80;90.20;;;;;;5035930;28;20021;-60
2023/12/22 02:18:55;;;;;;;51.55;38.65;;;8.80;90.00;;;;;;5037210;28;20028;-70
2023/12/22 02:21:21;;;;;;;51.40;40.03;;;8.70;91.10;;;;;;5036885;28;20027;-70
2023/12/22 02:23:50;;;;;;;57.30;44.08;;;8.70;91.40;;;;;;5037075;28;20100;-70
2023/12/22 02:26:41;;;;;;;51.83;40.72;;;8.60;92.60;;;;;;5037062;28;20021;-64
2023/12/22 02:29:09;;;;;;;55.15;42.17;;;8.60;93.70;;;;;;5036906;28;20407;-64
2023/12/22 02:31:44;;;;;;;66.47;49.20;;;8.70;93.70;;;;;;5036923;28;20045;-69
2023/12/22 02:34:18;;;;;;;57.28;44.20;;;8.70;94.30;;;;;;5036695;28;20472;-70
2023/12/22 02:36:44;;;;;;;71.03;55.45;;;8.70;94.30;;;;;;5036880;28;20025;-67
2023/12/22 02:39:11;;;;;;;90.03;67.35;;;8.70;94.60;;;;;;5036805;28;20060;-65
2023/12/22 02:41:37;;;;;;;86.85;69.28;;;8.50;95.90;;;;;;5036603;28;20018;-61
2023/12/22 02:44:03;;;;;;;71.75;58.50;;;8.50;97.10;;;;;;5036872;28;20434;-69
2023/12/22 02:46:29;;;;;;;65.47;52.33;;;8.50;97.70;;;;;;5037087;28;20121;-68
2023/12/22 02:48:54;;;;;;;57.80;47.03;;;8.60;98.40;;;;;;5036479;28;20075;-70
2023/12/22 02:51:20;;;;;;;56.95;45.17;;;8.70;98.00;;;;;;5036424;28;20510;-70
2023/12/22 02:53:46;;;;;;;67.70;50.10;;;8.80;96.40;;;;;;5036459;28;20033;-66
2023/12/22 02:56:11;;;;;;;68.28;51.97;;;8.90;95.80;;;;;;5036506;28;20032;-67
2023/12/22 02:58:37;;;;;;;57.92;45.38;;;9.00;96.50;;;;;;5036209;28;20042;-68
2023/12/22 03:01:03;;;;;;;52.15;40.40;;;9.00;95.60;;;;;;5036341;28;20391;-65
2023/12/22 03:03:28;;;;;;;53.70;39.72;;;9.00;96.40;;;;;;5036107;28;20025;-67
2023/12/22 03:05:54;;;;;;;50.40;40.35;;;9.10;96.40;;;;;;5036194;28;20070;-67
2023/12/22 03:08:20;;;;;;;41.90;34.22;;;9.00;97.00;;;;;;5036328;28;20026;-72
2023/12/22 03:10:45;;;;;;;39.90;31.65;;;8.80;97.30;;;;;;5036189;28;20028;-66
2023/12/22 03:13:11;;;;;;;38.30;29.58;;;8.90;97.70;;;;;;5035945;28;20029;-64
2023/12/22 03:15:37;;;;;;;36.28;28.52;;;9.00;97.10;;;;;;5036100;28;20103;-72
2023/12/22 03:18:02;;;;;;;30.35;24.88;;;9.00;95.90;;;;;;5035918;28;20029;-67
2023/12/22 03:20:28;;;;;;;27.92;23.27;;;9.00;96.20;;;;;;5035456;28;20029;-66
2023/12/22 03:22:54;;;;;;;28.55;22.00;;;9.00;96.40;;;;;;5035819;28;20030;-71
2023/12/22 03:25:20;;;;;;;26.25;21.63;;;9.10;96.20;;;;;;5036031;28;20033;-71
2023/12/22 03:27:45;;;;;;;27.05;21.23;;;9.10;96.60;;;;;;5035864;28;20033;-62
2023/12/22 03:30:11;;;;;;;34.30;26.25;;;9.10;95.80;;;;;;5035726;28;20018;-69
2023/12/22 03:32:37;;;;;;;38.83;30.77;;;9.00;96.70;;;;;;5035742;28;20068;-66
2023/12/22 03:35:03;;;;;;;34.55;26.80;;;8.80;99.30;;;;;;5035772;28;20053;-66
2023/12/22 03:37:29;;;;;;;29.35;23.17;;;8.80;99.90;;;;;;5034355;28;20388;-65
2023/12/22 03:39:54;;;;;;;30.73;25.30;;;8.90;99.50;;;;;;5035630;28;20071;-65
2023/12/22 03:42:20;;;;;;;26.50;21.17;;;8.90;98.50;;;;;;5035542;28;20033;-68
2023/12/22 03:44:46;;;;;;;25.13;20.27;;;8.80;98.90;;;;;;5035622;28;20476;-66
2023/12/22 03:47:11;;;;;;;25.67;19.60;;;8.90;98.90;;;;;;5035475;28;20017;-70
2023/12/22 03:49:37;;;;;;;26.95;21.60;;;9.00;99.00;;;;;;5035536;28;20022;-61
2023/12/22 03:52:03;;;;;;;23.77;18.67;;;9.00;98.50;;;;;;5035418;28;20034;-70
2023/12/22 03:54:28;;;;;;;22.75;17.27;;;9.00;98.40;;;;;;5035344;28;20026;-69
2023/12/22 03:56:54;;;;;;;21.98;18.20;;;9.00;98.60;;;;;;5035441;28;20100;-71
2023/12/22 03:59:20;;;;;;;22.15;18.70;;;9.10;99.40;;;;;;5035100;28;20242;-66
2023/12/22 04:01:55;;;;;;;23.17;18.48;;;9.10;98.80;;;;;;5034987;28;20514;-66
2023/12/22 04:04:22;;;;;;;23.60;18.17;;;9.10;98.40;;;;;;5035308;28;20022;-67
2023/12/22 04:06:48;;;;;;;20.80;17.33;;;9.10;99.00;;;;;;5035211;28;20067;-69
2023/12/22 04:09:14;;;;;;;23.60;18.27;;;9.00;99.40;;;;;;5035114;28;20476;-69
2023/12/22 04:11:41;;;;;;;23.77;20.15;;;9.10;99.90;;;;;;5035094;28;20062;-63
2023/12/22 04:14:07;;;;;;;24.42;19.52;;;9.00;99.50;;;;;;5035034;28;20078;-71
2023/12/22 04:16:32;;;;;;;23.40;19.25;;;8.90;99.90;;;;;;5034700;28;20026;-67
2023/12/22 04:18:58;;;;;;;21.90;18.13;;;8.90;99.90;;;;;;5035001;28;20369;-64
2023/12/22 04:21:24;;;;;;;19.33;16.35;;;9.00;99.90;;;;;;5034822;28;20032;-72
2023/12/22 04:23:49;;;;;;;20.60;17.02;;;9.00;99.90;;;;;;5034701;28;20025;-67
2023/12/22 04:26:15;;;;;;;16.80;14.70;;;9.10;99.80;;;;;;5034828;28;20053;-67
2023/12/22 04:28:41;;;;;;;18.85;15.20;;;9.20;99.40;;;;;;5034768;28;20029;-68
2023/12/22 04:31:06;;;;;;;17.75;15.10;;;9.30;99.30;;;;;;5034429;28;20387;-68
2023/12/22 04:33:32;;;;;;;23.20;19.10;;;9.30;99.00;;;;;;5033574;28;20052;-69
2023/12/22 04:35:58;;;;;;;23.27;18.90;;;9.30;99.90;;;;;;5034675;28;20096;-61
2023/12/22 04:38:23;;;;;;;20.83;17.55;;;9.20;99.90;;;;;;5034419;28;20028;-63
2023/12/22 04:40:49;;;;;;;23.23;18.85;;;9.10;99.90;;;;;;5034524;28;20463;-63
2023/12/22 04:43:15;;;;;;;23.58;19.85;;;9.20;99.90;;;;;;5034506;28;20032;-67
2023/12/22 04:45:40;;;;;;;18.73;16.17;;;9.10;99.90;;;;;;5034217;28;20021;-69
2023/12/22 04:48:06;;;;;;;22.70;17.85;;;9.10;99.90;;;;;;5034364;28;20025;-71
2023/12/22 04:50:32;;;;;;;25.48;21.73;;;9.10;99.90;;;;;;5033143;28;20029;-64
2023/12/22 04:52:58;;;;;;;23.50;18.35;;;9.10;99.90;;;;;;5034226;28;20025;-67
2023/12/22 04:55:23;;;;;;;23.98;20.33;;;9.00;99.90;;;;;;5034173;28;20025;-64
2023/12/22 04:57:49;;;;;;;19.55;16.38;;;9.10;99.90;;;;;;5034355;28;20087;-64
2023/12/22 05:00:15;;;;;;;21.15;18.10;;;9.10;99.90;;;;;;5033973;28;20036;-64
2023/12/22 05:02:41;;;;;;;17.48;15.52;;;9.20;99.90;;;;;;5033970;28;20036;-63
2023/12/22 05:05:08;;;;;;;16.15;14.30;;;9.20;99.90;;;;;;5034126;28;20018;-61
2023/12/22 05:07:34;;;;;;;20.40;15.93;;;9.20;99.90;;;;;;5034023;28;20033;-67
2023/12/22 05:09:59;;;;;;;19.92;16.85;;;9.30;99.90;;;;;;5033957;28;20014;-69
2023/12/22 05:12:25;;;;;;;17.48;15.02;;;9.30;99.90;;;;;;5033795;28;20095;-65
2023/12/22 05:14:51;;;;;;;40.20;31.70;;;9.30;99.90;;;;;;5033739;28;20032;-68
2023/12/22 05:17:16;;;;;;;31.50;25.10;;;9.20;99.90;;;;;;5034038;28;20014;-71
2023/12/22 05:19:42;;;;;;;30.67;23.80;;;9.20;99.90;;;;;;5032618;28;20022;-73
2023/12/22 05:22:08;;;;;;;24.23;20.13;;;9.30;99.90;;;;;;5033980;28;20536;-67
2023/12/22 05:24:33;;;;;;;24.63;20.40;;;9.30;99.90;;;;;;5033741;28;20361;-64
2023/12/22 05:26:59;;;;;;;20.17;17.58;;;9.40;99.90;;;;;;5033576;28;20025;-68
2023/12/22 05:29:25;;;;;;;25.05;19.65;;;9.40;99.90;;;;;;5033563;28;20080;-65
2023/12/22 05:31:50;;;;;;;21.75;18.10;;;9.40;99.90;;;;;;5033519;28;20455;-75
2023/12/22 05:34:16;;;;;;;21.77;17.25;;;9.40;99.90;;;;;;5033480;28;20052;-69
2023/12/22 05:36:42;;;;;;;22.23;17.63;;;9.50;99.90;;;;;;5033528;28;20071;-65
2023/12/22 05:39:10;;;;;;;17.45;15.32;;;9.50;99.90;;;;;;5033572;28;20032;-66
2023/12/22 05:41:37;;;;;;;15.13;13.13;;;9.50;99.90;;;;;;5036022;28;20064;-69
2023/12/22 05:44:05;;;;;;;19.63;15.95;;;9.50;99.90;;;;;;5032993;28;20037;-61
2023/12/22 05:46:30;;;;;;;15.05;13.25;;;9.50;99.90;;;;;;5045746;28;20472;-66
2023/12/22 05:48:59;;;;;;;15.00;13.45;;;9.50;99.90;;;;;;5043210;28;20032;-69
2023/12/22 05:51:25;;;;;;;18.48;15.07;;;9.40;99.90;;;;;;5041546;28;20029;-66
2023/12/22 05:53:53;;;;;;;22.10;19.38;;;9.50;99.90;;;;;;5033265;28;20052;-67
2023/12/22 05:56:22;;;;;;;26.67;22.85;;;9.50;99.90;;;;;;5033207;28;20028;-69
2023/12/22 05:58:51;;;;;;;33.95;27.27;;;9.30;99.90;;;;;;5031511;28;20045;-70
2023/12/22 06:01:18;;;;;;;27.65;23.40;;;9.00;99.90;;;;;;5033273;28;20036;-67
2023/12/22 06:03:44;;;;;;;28.65;24.30;;;9.10;99.90;;;;;;5033219;28;20100;-63
2023/12/22 06:06:10;;;;;;;26.35;21.83;;;9.30;99.90;;;;;;5033189;28;20021;-66
2023/12/22 06:08:38;;;;;;;30.02;23.63;;;9.40;99.90;;;;;;5033153;28;20044;-62
2023/12/22 06:11:03;;;;;;;26.05;21.08;;;9.50;99.90;;;;;;5033046;28;20025;-67
2023/12/22 06:13:29;;;;;;;32.22;26.92;;;9.60;99.90;;;;;;5032939;28;20033;-69
2023/12/22 06:15:55;;;;;;;28.45;21.88;;;9.60;99.90;;;;;;5041602;28;20029;-66
2023/12/22 06:18:20;;;;;;;29.67;24.13;;;9.60;99.90;;;;;;5035145;28;20041;-64
2023/12/22 06:20:46;;;;;;;25.95;22.27;;;9.60;99.90;;;;;;5050955;28;20025;-70
2023/12/22 06:23:12;;;;;;;29.42;22.38;;;9.70;99.90;;;;;;5052876;28;20556;-67
2023/12/22 06:25:37;;;;;;;24.95;21.33;;;9.70;99.90;;;;;;5038907;28;20033;-63
2023/12/22 06:28:04;;;;;;;54.75;43.55;;;9.80;99.90;;;;;;5052307;28;20021;-66
2023/12/22 06:30:30;;;;;;;34.17;29.45;;;9.80;99.90;;;;;;5043176;28;20079;-63
2023/12/22 06:32:56;;;;;;;38.05;32.63;;;9.70;99.90;;;;;;5031001;28;20394;-62
2023/12/22 06:35:25;;;;;;;32.75;27.65;;;9.70;99.90;;;;;;5032516;28;20100;-68
2023/12/22 06:37:51;;;;;;;28.38;24.77;;;9.70;99.90;;;;;;5032710;28;20392;-68
2023/12/22 06:40:18;;;;;;;33.90;26.20;;;9.70;99.90;;;;;;5032931;28;20033;-69
2023/12/22 06:42:44;;;;;;;41.70;32.20;;;9.60;99.90;;;;;;5031024;28;20053;-65
2023/12/22 06:45:10;;;;;;;50.78;39.45;;;9.60;99.90;;;;;;5044019;28;20025;-69
2023/12/22 06:47:36;;;;;;;61.78;47.72;;;9.50;99.90;;;;;;5050473;28;20021;-62
2023/12/22 06:50:03;;;;;;;53.88;40.78;;;9.40;99.90;;;;;;5052390;28;20021;-66
2023/12/22 06:52:30;;;;;;;43.28;34.35;;;9.40;99.90;;;;;;5051238;28;20032;-72
2023/12/22 06:54:56;;;;;;;27.30;23.10;;;9.40;99.90;;;;;;5039608;28;20183;-64
2023/12/22 06:57:22;;;;;;;31.52;26.05;;;9.50;99.90;;;;;;5044013;28;20043;-64
2023/12/22 06:59:50;;;;;;;38.85;30.77;;;9.50;99.90;;;;;;5039605;28;20128;-64
2023/12/22 07:02:17;;;;;;;39.47;31.13;;;9.50;99.90;;;;;;5044650;28;20074;-65
2023/12/22 07:05:07;;;;;;;48.42;38.72;;;9.40;99.90;;;;;;5045924;28;20021;-66
2023/12/22 07:07:33;;;;;;;33.42;28.77;;;9.40;99.90;;;;;;5029678;28;20427;-66
2023/12/22 07:09:59;;;;;;;27.45;24.15;;;9.30;99.90;;;;;;5051394;28;20029;-66
2023/12/22 07:12:24;;;;;;;34.58;28.58;;;9.40;99.90;;;;;;5054417;28;20021;-69
2023/12/22 07:14:50;;;;;;;27.45;24.42;;;9.50;99.90;;;;;;5053943;28;20208;-67
2023/12/22 07:17:15;;;;;;;20.63;18.40;;;9.60;99.90;;;;;;5044723;28;20067;-63
2023/12/22 07:19:41;;;;;;;21.25;19.08;;;9.60;99.90;;;;;;5043361;28;20108;-63
2023/12/22 07:22:07;;;;;;;24.52;21.98;;;9.60;99.90;;;;;;5045774;28;20425;-66
2023/12/22 07:24:33;;;;;;;60.63;54.03;;;9.70;99.90;;;;;;5044681;28;20463;-65
2023/12/22 07:26:58;;;;;;;26.52;23.73;;;9.50;99.90;;;;;;5045626;28;20021;-64
2023/12/22 07:29:24;;;;;;;17.60;15.85;;;9.00;99.90;;;;;;5044007;28;20021;-71
2023/12/22 07:31:50;;;;;;;11.18;10.07;;;8.80;99.90;;;;;;5044357;28;20029;-67
2023/12/22 07:34:17;;;;;;;10.93;9.82;;;8.80;99.90;;;;;;5042664;28;20534;-71
2023/12/22 07:36:43;;;;;;;10.73;9.63;;;9.00;99.90;;;;;;5044869;28;20383;-66
2023/12/22 07:39:09;;;;;;;11.32;10.23;;;9.10;99.90;;;;;;5042503;28;20036;-70
2023/12/22 07:41:35;;;;;;;13.32;12.02;;;9.20;99.90;;;;;;5044318;28;20434;-67
2023/12/22 07:44:01;;;;;;;10.40;9.40;;;9.20;99.90;;;;;;5044565;28;20134;-65
2023/12/22 07:46:28;;;;;;;16.52;14.75;;;9.40;99.90;;;;;;5042369;28;20087;-60
2023/12/22 07:48:54;;;;;;;15.10;12.75;;;9.50;99.90;;;;;;5042964;28;20429;-69
2023/12/22 07:51:20;;;;;;;14.80;13.20;;;9.50;99.90;;;;;;5042821;28;20023;-71
2023/12/22 07:53:46;;;;;;;13.00;11.70;;;9.60;99.90;;;;;;5040505;28;20041;-61
2023/12/22 07:56:12;;;;;;;19.10;17.10;;;9.70;99.90;;;;;;5040618;28;20026;-67
2023/12/22 07:58:38;;;;;;;22.55;20.30;;;9.80;99.90;;;;;;5040804;28;20058;-66
2023/12/22 08:01:07;;;;;;;16.63;14.93;;;9.80;99.90;;;;;;5039210;28;20028;-68
2023/12/22 08:03:33;;;;;;;15.50;14.00;;;9.90;99.90;;;;;;5039802;28;20059;-70
2023/12/22 08:05:59;;;;;;;14.73;13.30;;;10.00;99.90;;;;;;5033587;28;20495;-65
2023/12/22 08:08:25;;;;;;;15.77;14.18;;;10.20;99.90;;;;;;5038372;28;20040;-66
2023/12/22 08:10:51;;;;;;;15.07;13.48;;;10.30;99.90;;;;;;5049142;28;20033;-62
2023/12/22 08:13:17;;;;;;;14.88;13.30;;;10.40;99.90;;;;;;5041477;28;20131;-67
2023/12/22 08:15:44;;;;;;;17.27;15.48;;;10.40;99.90;;;;;;5052576;28;20033;-61
2023/12/22 08:18:11;;;;;;;22.38;19.42;;;10.40;99.90;;;;;;5034473;28;20026;-65
2023/12/22 08:20:37;;;;;;;25.17;21.85;;;10.40;99.90;;;;;;5032273;28;20068;-73
2023/12/22 08:23:03;;;;;;;23.67;21.17;;;10.40;99.90;;;;;;5035354;28;20104;-60
2023/12/22 08:25:31;;;;;;;20.10;18.08;;;10.50;99.90;;;;;;5050879;28;20501;-62
2023/12/22 08:27:57;;;;;;;17.35;15.48;;;10.40;99.90;;;;;;5045099;28;20098;-69
2023/12/22 08:30:24;;;;;;;15.38;13.77;;;10.40;99.90;;;;;;5040557;28;20064;-66
2023/12/22 08:32:50;;;;;;;16.55;14.85;;;10.30;99.90;;;;;;5046761;28;20048;-63
2023/12/22 08:35:16;;;;;;;14.65;12.90;;;10.30;99.90;;;;;;5048817;28;20083;-62
2023/12/22 08:37:46;;;;;;;13.93;12.45;;;10.20;99.90;;;;;;5050144;28;20484;-66
2023/12/22 08:40:12;;;;;;;13.00;11.60;;;10.20;99.90;;;;;;5041825;28;20021;-64
2023/12/22 08:42:39;;;;;;;13.10;11.77;;;10.20;99.90;;;;;;5041581;28;20023;-67
2023/12/22 08:45:05;;;;;;;10.65;9.55;;;10.20;99.90;;;;;;5043113;28;20029;-62
2023/12/22 08:47:31;;;;;;;11.55;10.35;;;10.20;99.90;;;;;;5039923;28;20102;-63
2023/12/22 08:49:57;;;;;;;10.50;9.50;;;10.30;99.90;;;;;;5040252;28;20431;-64
2023/12/22 08:52:23;;;;;;;10.18;8.43;;;10.30;99.90;;;;;;5036580;28;20518;-64
2023/12/22 08:54:48;;;;;;;10.43;9.35;;;10.30;99.90;;;;;;5032317;28;20021;-66
2023/12/22 08:57:14;;;;;;;12.25;9.70;;;10.40;99.90;;;;;;5040858;28;20059;-61
2023/12/22 08:59:40;;;;;;;10.40;9.30;;;10.40;99.90;;;;;;5050415;28;20406;-65
2023/12/22 09:02:06;;;;;;;17.20;14.75;;;10.40;99.90;;;;;;5051197;28;20111;-73
2023/12/22 09:04:32;;;;;;;15.65;13.60;;;10.40;99.90;;;;;;5051941;28;20049;-63
2023/12/22 09:06:58;;;;;;;12.13;10.82;;;10.30;99.90;;;;;;5052253;28;20028;-63
2023/12/22 09:09:25;;;;;;;12.38;10.65;;;10.30;99.90;;;;;;5051789;28;20497;-63
2023/12/22 09:11:51;;;;;;;26.33;22.48;;;10.40;99.90;;;;;;5050927;28;20435;-63
2023/12/22 09:14:16;;;;;;;27.23;23.13;;;10.30;99.90;;;;;;5051304;28;20119;-66
2023/12/22 09:16:44;;;;;;;45.45;35.55;;;10.30;99.90;;;;;;5052868;28;20111;-68
2023/12/22 09:19:10;;;;;;;45.33;37.08;;;10.30;99.90;;;;;;5051223;28;20490;-67
2023/12/22 09:21:35;;;;;;;31.30;27.90;;;10.30;99.90;;;;;;5051183;28;20025;-67
2023/12/22 09:24:01;;;;;;;36.53;30.55;;;10.30;99.90;;;;;;5052753;28;20070;-65
2023/12/22 09:26:27;;;;;;;25.02;22.33;;;10.20;99.90;;;;;;5053753;28;20032;-63
2023/12/22 09:28:56;;;;;;;20.42;17.30;;;10.00;99.90;;;;;;5053365;28;20040;-70
2023/12/22 09:31:22;;;;;;;17.60;15.00;;;10.00;99.90;;;;;;5034160;28;20082;-66
2023/12/22 09:33:48;;;;;;;17.33;14.27;;;10.10;99.90;;;;;;5033531;28;20029;-68
2023/12/22 09:36:14;;;;;;;15.93;13.45;;;10.20;99.90;;;;;;5033172;28;20021;-61
2023/12/22 09:38:41;;;;;;;12.90;11.10;;;10.10;99.90;;;;;;5032626;28;20025;-65
2023/12/22 09:41:07;;;;;;;11.45;9.95;;;10.20;99.90;;;;;;5032423;28;20021;-70
2023/12/22 09:43:36;;;;;;;15.00;13.23;;;10.30;99.90;;;;;;5043810;28;20029;-65
2023/12/22 09:46:03;;;;;;;16.92;14.38;;;10.40;99.90;;;;;;5053225;28;20534;-59
2023/12/22 09:48:30;;;;;;;17.02;13.93;;;10.40;99.90;;;;;;5053094;28;20467;-69
2023/12/22 09:50:57;;;;;;;13.80;11.70;;;10.50;99.90;;;;;;5052877;28;20025;-66
2023/12/22 09:53:24;;;;;;;13.30;11.45;;;10.50;99.90;;;;;;5053252;28;20029;-66
2023/12/22 09:55:50;;;;;;;11.07;9.60;;;10.50;99.90;;;;;;5052371;28;20104;-60
2023/12/22 09:58:16;;;;;;;10.43;9.23;;;10.70;99.90;;;;;;5051987;28;20077;-65
2023/12/22 10:00:43;;;;;;;10.48;9.38;;;10.80;99.90;;;;;;5051044;28;20444;-62
2023/12/22 10:03:14;;;;;;;13.38;9.50;;;10.80;99.90;;;;;;5051928;28;20025;-66
2023/12/22 10:05:40;;;;;;;12.45;9.20;;;10.90;99.90;;;;;;5052819;28;20025;-65
2023/12/22 10:08:10;;;;;;;11.10;9.88;;;11.00;99.90;;;;;;5052234;28;20021;-67
2023/12/22 10:10:37;;;;;;;8.90;7.60;;;11.00;99.90;;;;;;5051887;28;20039;-63
2023/12/22 10:13:07;;;;;;;8.80;7.90;;;10.90;99.90;;;;;;5051886;28;20029;-67
2023/12/22 10:15:33;;;;;;;8.35;7.45;;;11.00;99.90;;;;;;5050203;28;20036;-64
2023/12/22 10:17:59;;;;;;;10.73;9.38;;;11.00;99.90;;;;;;5051456;28;20051;-66
2023/12/22 10:20:25;;;;;;;14.05;11.32;;;11.00;99.90;;;;;;5050879;28;20388;-66
2023/12/22 10:22:50;;;;;;;9.88;8.73;;;11.00;99.90;;;;;;5052125;28;20021;-70
2023/12/22 10:25:20;;;;;;;10.35;9.00;;;11.00;99.90;;;;;;5051871;28;20028;-58
2023/12/22 10:27:46;;;;;;;14.85;12.32;;;11.00;99.90;;;;;;5052236;28;20021;-69
2023/12/22 10:30:12;;;;;;;14.15;12.43;;;11.00;99.90;;;;;;5052817;28;20467;-62
2023/12/22 10:32:44;;;;;;;11.10;9.95;;;11.00;99.90;;;;;;5054335;28;20036;-67
2023/12/22 10:35:10;;;;;;;11.35;10.25;;;11.00;99.90;;;;;;5056765;28;20096;-70
2023/12/22 10:37:36;;;;;;;12.00;10.80;;;11.10;99.90;;;;;;5056980;28;20055;-73
2023/12/22 10:40:05;;;;;;;9.60;8.43;;;11.10;99.90;;;;;;5055459;28;20558;-67
2023/12/22 10:42:32;;;;;;;15.30;13.80;;;11.20;99.90;;;;;;5056586;28;20037;-65
2023/12/22 10:44:57;;;;;;;21.83;18.48;;;11.10;99.90;;;;;;5055606;28;20368;-61
2023/12/22 10:47:23;;;;;;;22.95;20.55;;;11.10;99.90;;;;;;5056324;28;20079;-63
2023/12/22 10:49:49;;;;;;;18.40;16.50;;;11.10;99.90;;;;;;5055349;28;20021;-64
2023/12/22 10:52:18;;;;;;;17.65;15.65;;;11.10;99.90;;;;;;5056808;28;20029;-63
2023/12/22 10:54:45;;;;;;;21.65;18.40;;;11.20;99.90;;;;;;5056250;28;20045;-64
2023/12/22 10:57:11;;;;;;;20.73;18.17;;;11.30;99.90;;;;;;5056275;28;20426;-68
2023/12/22 10:59:45;;;;;;;39.53;34.60;;;11.30;99.90;;;;;;5056135;28;20079;-60
2023/12/22 11:02:15;;;;;;;47.38;42.10;;;11.40;99.90;;;;;;5055285;28;20105;-66
2023/12/22 11:04:42;;;;;;;39.40;35.33;;;11.30;99.90;;;;;;5056007;28;20391;-68
2023/12/22 11:07:10;;;;;;;37.03;33.08;;;11.20;99.90;;;;;;5055605;28;20493;-61
2023/12/22 11:09:38;;;;;;;35.22;30.15;;;11.20;99.90;;;;;;5055712;28;20024;-64
2023/12/22 11:12:05;;;;;;;31.98;28.67;;;11.30;99.90;;;;;;5055694;28;20025;-61
2023/12/22 11:14:32;;;;;;;28.50;25.50;;;11.40;99.90;;;;;;5055533;28;20043;-62
2023/12/22 11:17:01;;;;;;;26.65;23.80;;;11.40;99.90;;;;;;5055869;28;20024;-68
2023/12/22 11:19:28;;;;;;;24.33;21.73;;;11.40;99.90;;;;;;5053919;28;20032;-64
2023/12/22 11:21:55;;;;;;;19.90;17.73;;;11.40;99.90;;;;;;5055333;28;20104;-67
2023/12/22 11:24:22;;;;;;;16.63;14.93;;;11.40;99.90;;;;;;5055804;28;20052;-63
2023/12/22 11:26:51;;;;;;;16.15;14.45;;;11.50;99.90;;;;;;5055704;28;20475;-62
2023/12/22 11:29:20;;;;;;;12.55;11.27;;;11.60;99.90;;;;;;5055491;28;20020;-58
2023/12/22 11:31:50;;;;;;;10.95;9.90;;;11.60;99.90;;;;;;5055533;28;20029;-62
2023/12/22 11:34:18;;;;;;;9.35;8.40;;;11.70;99.90;;;;;;5054754;28;20460;-66
2023/12/22 11:36:47;;;;;;;7.32;6.72;;;11.70;99.90;;;;;;5055431;28;20530;-62
2023/12/22 11:39:14;;;;;;;11.25;9.70;;;11.80;99.90;;;;;;5055314;28;20025;-62
2023/12/22 11:41:40;;;;;;;9.88;8.85;;;11.70;99.90;;;;;;5055199;28;20036;-56
2023/12/22 11:44:07;;;;;;;8.52;7.63;;;11.60;99.90;;;;;;5055278;28;20029;-64
2023/12/22 11:46:34;;;;;;;6.50;5.90;;;11.60;99.90;;;;;;5054951;28;20096;-64
2023/12/22 11:49:00;;;;;;;5.85;5.35;;;11.60;99.90;;;;;;5055261;28;20021;-64
2023/12/22 11:51:32;;;;;;;5.40;4.90;;;11.60;99.90;;;;;;5051561;28;20037;-62
2023/12/22 11:53:57;;;;;;;5.07;4.57;;;11.70;99.90;;;;;;5042199;28;20033;-66
2023/12/22 11:56:24;;;;;;;15.43;13.25;;;11.70;99.90;;;;;;5045236;28;20025;-63
2023/12/22 11:58:54;;;;;;;34.10;27.65;;;11.60;99.90;;;;;;5037685;28;20049;-61
2023/12/22 12:01:23;;;;;;;41.83;35.38;;;11.50;99.90;;;;;;5034780;28;20022;-63
2023/12/22 12:03:51;;;;;;;62.72;54.28;;;11.30;99.90;;;;;;5035162;28;20036;-61
2023/12/22 12:06:21;;;;;;;54.55;48.83;;;11.40;99.90;;;;;;5040312;28;20056;-66
2023/12/22 12:08:48;;;;;;;48.72;43.72;;;11.50;99.90;;;;;;5052207;28;20132;-62
2023/12/22 12:11:14;;;;;;;32.75;29.50;;;11.60;99.90;;;;;;5054592;28;20156;-61
2023/12/22 12:13:44;;;;;;;34.28;30.70;;;11.80;99.90;;;;;;5053794;28;20108;-64
2023/12/22 12:16:15;;;;;;;23.25;20.80;;;12.00;99.90;;;;;;5052473;28;20025;-66
2023/12/22 12:18:42;;;;;;;18.40;16.50;;;12.50;99.90;;;;;;5053793;28;20489;-68
2023/12/22 12:21:09;;;;;;;17.17;15.57;;;12.90;99.40;;;;;;5053711;28;20029;-63
2023/12/22 12:23:36;;;;;;;13.90;12.50;;;13.20;97.60;;;;;;5053996;28;20360;-65
2023/12/22 12:26:02;;;;;;;13.05;11.75;;;13.30;94.60;;;;;;5054791;28;20035;-61
2023/12/22 12:28:32;;;;;;;11.23;10.13;;;13.30;95.60;;;;;;5053482;28;20029;-60
2023/12/22 12:31:05;;;;;;;10.45;9.45;;;13.30;93.10;;;;;;5051175;28;20021;-66
2023/12/22 12:33:32;;;;;;;9.50;8.60;;;13.40;92.80;;;;;;5049784;28;20043;-66